METAR Formatted Surface Weather Observation
Issued by NWS

Home | Current Version | Previous Version | Text Only | Print | Product List | Glossary On
Versions: 1 2 3 4 5 6 7
000
SAUS46 KSEW 122104
MTRSMP
METAR KSMP 122056Z AUTO VRB03KT 10SM CLR 29/07 A3025 RMK AO2 SLP205
T02940072 51001



USA.gov is the U.S. government's official web portal to all federal, state and local government web resources and services.